Time;durP1;ratioP1;P1;durP2;ratioP2;P2;SDS_P1;SDS_P2;PMS_P1;PMS_P2;Temp;Humidity;BMP_temperature;BMP_pressure;BME280_temperature;BME280_humidity;BME280_pressure;Samples;Min_cycle;Max_cycle;Signal;HPM_P1;HPM_P2
2022/03/28 00:01:03;;;;;;;;;42.50;35.50;;;;;13.09;45.37;102371.56;2443154;28;44702;-80
2022/03/28 00:02:13;;;;;;;;;38.50;34.25;;;;;13.04;45.67;102361.06;2442465;28;46229;-82
2022/03/28 00:03:23;;;;;;;;;37.00;31.25;;;;;13.04;45.95;102366.34;2446424;28;44575;-82
2022/03/28 00:04:34;;;;;;;;;46.75;35.00;;;;;13.03;46.01;102370.78;2450189;28;45497;-86
2022/03/28 00:05:44;;;;;;;;;43.50;33.50;;;;;13.03;45.77;102368.13;2442270;28;44566;-87
2022/03/28 00:06:55;;;;;;;;;40.00;34.50;;;;;13.01;46.53;102366.41;2442083;28;46185;-86
2022/03/28 00:08:06;;;;;;;;;44.25;37.25;;;;;13.00;45.90;102360.25;2442122;28;45195;-85
2022/03/28 00:09:16;;;;;;;;;37.75;31.00;;;;;12.97;45.92;102362.94;2441194;28;47970;-85
2022/03/28 00:10:27;;;;;;;;;39.25;34.25;;;;;12.97;46.19;102360.31;2436777;28;45232;-86
2022/03/28 00:11:37;;;;;;;;;32.00;26.00;;;;;12.94;46.11;102349.78;2435335;28;48193;-85
2022/03/28 00:12:48;;;;;;;;;38.50;30.75;;;;;12.95;46.50;102356.81;2443877;28;45244;-85
2022/03/28 00:13:58;;;;;;;;;29.75;28.50;;;;;12.92;46.14;102354.22;2450464;27;45272;-85
2022/03/28 00:15:09;;;;;;;;;42.25;35.50;;;;;12.92;46.51;102359.50;2451345;28;46719;-85
2022/03/28 00:16:20;;;;;;;;;43.50;38.00;;;;;12.90;46.68;102350.75;2457006;27;45414;-85
2022/03/28 00:17:32;;;;;;;;;39.75;33.50;;;;;12.88;46.37;102355.19;2454766;27;45368;-85
2022/03/28 00:18:42;;;;;;;;;42.25;34.50;;;;;12.83;46.43;102348.22;2441904;28;45677;-86
2022/03/28 00:19:53;;;;;;;;;43.00;35.00;;;;;12.84;46.96;102354.34;2444460;28;45378;-86
2022/03/28 00:21:03;;;;;;;;;41.50;35.25;;;;;12.85;46.58;102356.09;2445446;27;46267;-89
2022/03/28 00:22:14;;;;;;;;;46.50;36.50;;;;;12.85;46.37;102355.22;2442407;28;45414;-88
2022/03/28 00:23:24;;;;;;;;;47.00;35.25;;;;;12.79;46.67;102349.16;2441772;28;46465;-88
2022/03/28 00:24:35;;;;;;;;;38.25;33.25;;;;;12.80;46.88;102350.91;2442092;28;45448;-88
2022/03/28 00:25:46;;;;;;;;;40.00;35.25;;;;;12.79;47.27;102354.44;2441967;28;46139;-88
2022/03/28 00:26:57;;;;;;;;;48.00;38.00;;;;;12.75;47.29;102349.22;2448515;28;45230;-87
2022/03/28 00:28:07;;;;;;;;;44.25;33.00;;;;;12.76;47.05;102354.50;2451153;28;46476;-87
2022/03/28 00:29:17;;;;;;;;;39.50;34.00;;;;;12.76;47.50;102353.63;2446723;27;44743;-87
2022/03/28 00:30:28;;;;;;;;;40.75;35.00;;;;;12.71;46.85;102344.03;2444015;27;46421;-87
2022/03/28 00:31:38;;;;;;;;;40.75;30.00;;;;;12.73;47.04;102346.63;2443572;28;45490;-87
2022/03/28 00:32:49;;;;;;;;;51.50;37.25;;;;;12.70;46.87;102351.94;2443859;28;48088;-85
2022/03/28 00:33:59;;;;;;;;;50.25;37.50;;;;;12.68;47.43;102344.06;2451029;28;45278;-85
2022/03/28 00:35:10;;;;;;;;;41.25;35.50;;;;;12.69;47.28;102344.94;2451508;27;46213;-85
2022/03/28 00:36:20;;;;;;;;;40.50;34.00;;;;;12.68;47.87;102340.56;2451853;27;44529;-87
2022/03/28 00:37:31;;;;;;;;;40.75;34.50;;;;;12.68;47.37;102343.19;2451321;27;45286;-87
2022/03/28 00:38:41;;;;;;;;;39.00;34.75;;;;;12.66;47.24;102343.22;2451774;27;45239;-86
2022/03/28 00:39:52;;;;;;;;;48.75;38.00;;;;;12.67;47.42;102333.53;2441147;28;47154;-87
2022/03/28 00:41:04;;;;;;;;;47.00;37.75;;;;;12.64;47.23;102336.22;2441479;28;44704;-88
2022/03/28 00:42:14;;;;;;;;;41.50;33.25;;;;;12.65;47.37;102343.22;2442082;28;46272;-88
2022/03/28 00:43:26;;;;;;;;;42.75;35.00;;;;;12.62;47.69;102335.41;2442009;28;44608;-88
2022/03/28 00:44:36;;;;;;;;;41.00;35.25;;;;;12.61;47.88;102331.88;2445002;28;48243;-88
2022/03/28 00:45:47;;;;;;;;;47.75;38.00;;;;;12.56;47.68;102328.44;2450811;28;44681;-88
2022/03/28 00:46:58;;;;;;;;;43.00;34.00;;;;;12.58;47.91;102329.28;2440743;28;47331;-88
2022/03/28 00:48:10;;;;;;;;;47.75;37.50;;;;;12.58;47.89;102335.44;2437954;28;44693;-86
2022/03/28 00:49:20;;;;;;;;;40.00;34.50;;;;;12.56;47.78;102339.88;2441706;28;47141;-87
2022/03/28 00:50:32;;;;;;;;;41.50;35.75;;;;;12.54;48.13;102327.59;2443608;28;45274;-87
2022/03/28 00:51:42;;;;;;;;;45.00;34.25;;;;;12.54;47.92;102333.75;2441883;28;46207;-86
2022/03/28 00:52:54;;;;;;;;;36.25;34.25;;;;;12.54;48.30;102330.22;2441968;28;45216;-86
2022/03/28 00:54:06;;;;;;;;;47.25;36.75;;;;;12.53;48.03;102328.47;2441759;28;46237;-86
2022/03/28 00:55:17;;;;;;;;;42.50;35.25;;;;;12.51;48.46;102327.63;2446810;28;45431;-86
2022/03/28 00:56:27;;;;;;;;;38.25;33.50;;;;;12.49;48.32;102323.25;2441415;28;47254;-86
2022/03/28 00:57:37;;;;;;;;;45.25;33.75;;;;;12.48;48.08;102329.44;2433777;28;44646;-86
2022/03/28 00:58:48;;;;;;;;;39.50;35.00;;;;;12.50;48.87;102332.03;2443041;28;45367;-83
2022/03/28 00:59:59;;;;;;;;;42.50;36.25;;;;;12.47;48.22;102326.81;2441954;28;45236;-84
2022/03/28 01:01:11;;;;;;;;;47.75;34.50;;;;;12.47;48.47;102326.81;2440818;28;48232;-83
2022/03/28 01:02:21;;;;;;;;;39.25;34.50;;;;;12.47;48.77;102329.47;2447620;27;45309;-83
2022/03/28 01:03:32;;;;;;;;;46.00;34.75;;;;;12.41;48.49;102321.63;2455532;27;45619;-82
2022/03/28 01:04:42;;;;;;;;;44.50;37.75;;;;;12.44;48.89;102329.50;2450915;28;45328;-86
2022/03/28 01:05:53;;;;;;;;;42.50;36.25;;;;;12.41;48.84;102325.16;2443574;28;46584;-82
2022/03/28 01:07:06;;;;;;;;;42.50;35.50;;;;;12.41;48.70;102329.53;2450283;28;44566;-85
2022/03/28 01:08:17;;;;;;;;;46.50;36.25;;;;;12.41;48.58;102334.81;2449184;28;47931;-83
2022/03/28 01:09:28;;;;;;;;;40.00;33.75;;;;;12.37;49.23;102324.31;2442911;28;45500;-83
2022/03/28 01:10:39;;;;;;;;;46.25;37.25;;;;;12.37;49.12;102321.66;2445220;28;45344;-83
2022/03/28 01:11:52;;;;;;;;;42.25;34.00;;;;;12.39;49.18;102332.22;2447850;28;45454;-83
2022/03/28 01:13:02;;;;;;;;;42.25;34.50;;;;;12.37;49.30;102318.19;2442769;28;45460;-83
2022/03/28 01:14:13;;;;;;;;;44.00;35.75;;;;;12.32;48.81;102314.75;2444150;28;45285;-83
2022/03/28 01:15:23;;;;;;;;;44.00;34.50;;;;;12.30;49.00;102311.28;2460572;27;47219;-83
2022/03/28 01:18:05;;;;;;;;;46.50;36.75;;;;;12.30;48.95;102308.63;2458117;27;45391;-82
2022/03/28 01:18:06;;;;;;;;;43.50;35.25;;;;;12.30;49.34;102306.84;2445149;27;45338;-82
2022/03/28 01:19:17;;;;;;;;;44.75;33.75;;;;;12.27;49.02;102312.19;2442264;28;45275;-83
2022/03/28 01:20:29;;;;;;;;;44.75;35.25;;;;;12.29;49.57;102309.50;2441356;28;45995;-82
2022/03/28 01:21:40;;;;;;;;;45.00;33.25;;;;;12.26;49.53;102310.44;2441670;28;44732;-83
2022/03/28 01:22:51;;;;;;;;;40.00;32.25;;;;;12.23;49.08;102299.91;2441643;28;45243;-81
2022/03/28 01:24:01;;;;;;;;;41.75;35.00;;;;;12.20;49.35;102300.00;2441562;28;45232;-83
2022/03/28 01:25:11;;;;;;;;;40.25;32.00;;;;;12.20;49.65;102300.00;2450914;27;45266;-83
2022/03/28 01:26:22;;;;;;;;;39.25;32.75;;;;;12.19;49.36;102300.88;2451577;27;44633;-83
2022/03/28 01:27:33;;;;;;;;;40.25;33.25;;;;;12.20;49.38;102306.09;2441514;28;45901;-82
2022/03/28 01:28:43;;;;;;;;;47.00;36.50;;;;;12.17;49.57;102300.03;2443678;28;44806;-82
2022/03/28 01:29:54;;;;;;;;;44.00;34.00;;;;;12.19;49.61;102303.50;2451342;27;46239;-82
2022/03/28 01:31:05;;;;;;;;;40.75;32.25;;;;;12.15;50.01;102295.63;2442599;27;44802;-86
2022/03/28 01:32:15;;;;;;;;;44.00;34.00;;;;;12.14;49.67;102296.53;2443507;28;47443;-84
2022/03/28 01:33:26;;;;;;;;;44.75;35.25;;;;;12.15;49.30;102298.25;2449377;28;45314;-84
2022/03/28 01:34:37;;;;;;;;;40.25;33.25;;;;;12.14;49.26;102300.94;2441497;28;45679;-85
2022/03/28 01:35:47;;;;;;;;;42.50;34.00;;;;;12.12;49.99;102294.78;2449234;28;45284;-86
2022/03/28 01:36:58;;;;;;;;;45.50;35.25;;;;;12.09;50.00;102295.69;2447896;27;45366;-85
2022/03/28 01:38:14;;;;;;;;;47.00;35.50;;;;;12.06;49.81;102287.81;2451443;27;45342;-86
2022/03/28 01:39:26;;;;;;;;;44.50;35.25;;;;;12.09;50.23;102295.69;2442626;27;45398;-86
2022/03/28 01:40:38;;;;;;;;;44.75;35.75;;;;;12.05;49.94;102291.34;2442478;28;45283;-85
2022/03/28 01:41:49;;;;;;;;;42.75;35.00;;;;;12.02;49.79;102287.03;2441505;28;46387;-87
2022/03/28 01:43:00;;;;;;;;;48.25;35.25;;;;;12.04;49.96;102293.13;2441518;28;45323;-86
2022/03/28 01:44:10;;;;;;;;;43.50;34.75;;;;;12.03;49.98;102282.59;2440535;28;47219;-85
2022/03/28 01:45:21;;;;;;;;;44.50;35.25;;;;;12.01;50.01;102295.81;2440960;28;45284;-89
2022/03/28 01:46:44;;;;;;;;;40.50;34.00;;;;;12.00;50.22;102293.19;2441051;28;45357;-87
2022/03/28 01:47:55;;;;;;;;;44.75;33.75;;;;;11.97;49.90;102293.25;2450438;27;44661;-88
2022/03/28 01:49:05;;;;;;;;;36.75;31.75;;;;;11.97;50.29;102291.47;2445777;28;46132;-89
2022/03/28 01:50:17;;;;;;;;;23.75;16.50;;;;;11.99;50.23;102296.72;2449229;27;45431;-88
2022/03/28 01:51:27;;;;;;;;;42.75;34.00;;;;;11.97;50.16;102293.25;2440577;28;47292;-90
2022/03/28 01:52:37;;;;;;;;;46.00;34.50;;;;;11.93;50.28;102293.28;2449030;28;45379;-89
2022/03/28 01:53:48;;;;;;;;;46.00;35.00;;;;;11.91;50.60;102281.88;2451012;27;45382;-89
2022/03/28 01:54:58;;;;;;;;;42.50;33.50;;;;;11.90;50.48;102282.75;2451097;27;45342;-89
2022/03/28 01:56:08;;;;;;;;;40.75;32.75;;;;;11.91;50.63;102287.16;2440998;28;46961;-89
2022/03/28 01:57:19;;;;;;;;;39.25;33.00;;;;;11.87;50.37;102276.69;2441893;28;45219;-89
2022/03/28 01:58:29;;;;;;;;;41.25;33.25;;;;;11.87;50.57;102280.19;2441134;28;45456;-88
2022/03/28 01:59:39;;;;;;;;;46.00;34.50;;;;;11.87;50.58;102288.09;2450188;28;45274;-89
2022/03/28 02:00:50;;;;;;;;;46.25;37.25;;;;;11.82;50.59;102282.00;2444155;28;46836;-89
2022/03/28 02:02:00;;;;;;;;;44.75;34.75;;;;;11.81;50.81;102272.34;2450219;28;44647;-89
2022/03/28 02:03:10;;;;;;;;;42.25;33.50;;;;;11.82;50.33;102279.38;2454110;27;45459;-88
2022/03/28 02:04:21;;;;;;;;;38.25;32.25;;;;;11.80;50.55;102283.81;2448115;28;45224;-89
2022/03/28 02:05:31;;;;;;;;;42.00;35.00;;;;;11.79;50.70;102285.56;2442761;28;47035;-88
2022/03/28 02:06:41;;;;;;;;;45.25;36.00;;;;;11.77;50.88;102284.72;2449072;28;45255;-89
2022/03/28 02:07:52;;;;;;;;;36.50;31.25;;;;;11.76;51.11;102279.44;2440315;28;48010;-89
2022/03/28 02:09:03;;;;;;;;;44.50;35.75;;;;;11.74;50.59;102282.13;2446181;28;45322;-89
2022/03/28 02:10:16;;;;;;;;;42.00;35.00;;;;;11.70;50.95;102278.63;2449991;28;48374;-88
2022/03/28 02:11:28;;;;;;;;;44.50;35.75;;;;;11.71;50.82;102276.88;2443650;28;44708;-89
2022/03/28 02:12:39;;;;;;;;;45.00;35.00;;;;;11.69;50.70;102278.66;2441962;28;46364;-89
2022/03/28 02:13:49;;;;;;;;;39.00;33.25;;;;;11.70;50.64;102288.31;2448503;28;45411;-89
2022/03/28 02:15:00;;;;;;;;;50.00;36.00;;;;;11.67;50.97;102275.19;2449547;28;46280;-88
2022/03/28 02:16:10;;;;;;;;;41.75;33.00;;;;;11.66;50.87;102278.69;2450733;27;45193;-88
2022/03/28 02:17:21;;;;;;;;;42.50;33.50;;;;;11.64;50.93;102277.84;2451575;27;45258;-88
2022/03/28 02:18:31;;;;;;;;;36.75;33.25;;;;;11.64;51.11;102280.47;2441278;28;45332;-89
2022/03/28 02:19:42;;;;;;;;;51.00;38.00;;;;;11.65;51.16;102283.13;2441291;28;45328;-89
2022/03/28 02:20:52;;;;;;;;;43.25;34.00;;;;;11.61;50.88;102275.25;2441141;28;45238;-89
2022/03/28 02:22:03;;;;;;;;;49.25;37.50;;;;;11.61;51.40;102275.25;2440936;28;46178;-89
2022/03/28 02:23:13;;;;;;;;;44.25;34.75;;;;;11.61;51.26;102276.13;2441367;28;45283;-86
2022/03/28 02:24:24;;;;;;;;;44.75;35.00;;;;;11.57;51.50;102275.31;2448596;28;45371;-89
2022/03/28 02:25:37;;;;;;;;;43.00;35.50;;;;;11.60;51.40;102279.66;2446048;27;45435;-88
2022/03/28 02:26:47;;;;;;;;;44.00;35.00;;;;;11.57;51.54;102274.44;2441160;28;46596;-89
2022/03/28 02:27:57;;;;;;;;;45.00;36.00;;;;;11.57;51.38;102282.31;2441173;28;44794;-89
2022/03/28 02:29:08;;;;;;;;;47.00;37.50;;;;;11.58;51.69;102284.09;2441058;28;46073;-90
2022/03/28 02:30:18;;;;;;;;;45.00;35.25;;;;;11.56;51.62;102276.19;2440364;28;44649;-88
2022/03/28 02:31:28;;;;;;;;;44.75;35.50;;;;;11.55;51.79;102279.72;2440189;28;47312;-88
2022/03/28 02:32:39;;;;;;;;;42.75;35.75;;;;;11.52;51.69;102271.84;2437844;28;45288;-89
2022/03/28 02:33:49;;;;;;;;;40.00;32.00;;;;;11.53;51.67;102275.38;2435221;28;48099;-88
2022/03/28 02:35:00;;;;;;;;;41.25;33.75;;;;;11.52;51.70;102281.50;2433390;28;45402;-88
2022/03/28 02:36:11;;;;;;;;;39.00;33.25;;;;;11.51;51.60;102274.50;2440650;28;45501;-89
2022/03/28 02:37:21;;;;;;;;;45.50;35.50;;;;;11.46;51.65;102272.78;2444973;28;45223;-89
2022/03/28 02:38:32;;;;;;;;;39.75;32.75;;;;;11.47;51.88;102271.03;2450477;27;46405;-88
2022/03/28 02:39:42;;;;;;;;;48.75;36.00;;;;;11.48;51.82;102275.44;2440325;28;45239;-89
2022/03/28 02:40:53;;;;;;;;;38.50;34.75;;;;;11.46;51.83;102271.91;2442840;28;48372;-88
2022/03/28 02:42:04;;;;;;;;;45.75;36.75;;;;;11.45;51.68;102275.44;2447721;28;44670;-89
2022/03/28 02:43:14;;;;;;;;;43.00;31.25;;;;;11.40;52.24;102261.47;2448966;28;46131;-88
2022/03/28 02:44:25;;;;;;;;;43.75;35.50;;;;;11.41;51.90;102264.06;2441102;28;45405;-88
2022/03/28 02:45:37;;;;;;;;;46.25;35.00;;;;;11.44;52.28;102273.69;2441250;28;45500;-88
2022/03/28 02:46:47;;;;;;;;;44.50;36.00;;;;;11.42;52.16;102265.81;2440144;28;45264;-88
2022/03/28 02:48:01;;;;;;;;;36.00;32.50;;;;;11.41;52.23;102258.81;2449085;28;47132;-88
2022/03/28 02:49:12;;;;;;;;;44.25;35.75;;;;;11.40;51.99;102262.34;2450412;28;44751;-88
2022/03/28 02:50:23;;;;;;;;;46.00;37.00;;;;;11.36;52.03;102257.97;2447367;28;47312;-88
2022/03/28 02:51:33;;;;;;;;;43.25;35.00;;;;;11.41;52.48;102256.16;2433377;28;45214;-89
2022/03/28 02:52:44;;;;;;;;;46.75;36.75;;;;;11.39;52.12;102259.72;2440344;28;45363;-89
2022/03/28 02:53:54;;;;;;;;;48.25;35.75;;;;;11.38;52.38;102252.72;2442982;28;45226;-89
2022/03/28 02:55:05;;;;;;;;;38.00;33.00;;;;;11.35;52.26;102259.78;2439830;28;47427;-89
2022/03/28 02:56:16;;;;;;;;;45.50;35.50;;;;;11.35;52.03;102258.91;2447255;28;44718;-88
2022/03/28 02:57:26;;;;;;;;;49.75;36.25;;;;;11.34;52.29;102255.38;2449764;28;47005;-87
2022/03/28 02:58:36;;;;;;;;;44.50;34.50;;;;;11.32;52.38;102253.66;2450318;28;45333;-88
2022/03/28 02:59:47;;;;;;;;;44.50;35.50;;;;;11.30;52.64;102255.44;2450789;27;46218;-87
2022/03/28 03:00:57;;;;;;;;;45.25;35.50;;;;;11.30;52.65;102250.19;2449624;28;44674;-85
2022/03/28 03:02:08;;;;;;;;;44.75;32.75;;;;;11.29;52.96;102248.41;2449438;28;45378;-82
2022/03/28 03:03:18;;;;;;;;;44.00;35.25;;;;;11.27;52.70;102243.19;2441271;28;45252;-81
2022/03/28 03:04:33;;;;;;;;;45.25;37.00;;;;;11.30;52.56;102247.53;2440850;28;45382;-85
2022/03/28 03:05:43;;;;;;;;;46.00;37.25;;;;;11.27;52.45;102240.56;2441221;28;45166;-85
2022/03/28 03:06:53;;;;;;;;;44.25;35.00;;;;;11.29;52.40;102240.53;2441017;28;46628;-84
2022/03/28 03:08:04;;;;;;;;;47.00;35.75;;;;;11.29;52.79;102243.16;2440922;28;45228;-80
2022/03/28 03:09:14;;;;;;;;;49.00;37.75;;;;;11.30;52.93;102240.53;2440761;28;45208;-80
2022/03/28 03:10:24;;;;;;;;;37.00;31.00;;;;;11.26;52.96;102238.78;2442437;28;45295;-80
2022/03/28 03:11:35;;;;;;;;;47.00;37.75;;;;;11.27;52.81;102234.41;2442683;27;45385;-79
2022/03/28 03:12:45;;;;;;;;;47.25;38.00;;;;;11.30;52.99;102239.66;2440844;28;45249;-79
2022/03/28 03:13:56;;;;;;;;;44.75;35.00;;;;;11.27;53.08;102231.78;2445589;27;45483;-79
2022/03/28 03:15:07;;;;;;;;;46.25;38.25;;;;;11.25;52.68;102232.69;2440777;28;45381;-87
2022/03/28 03:16:17;;;;;;;;;42.75;35.50;;;;;11.29;53.00;102230.88;2451105;27;45523;-87
2022/03/28 03:17:27;;;;;;;;;39.50;34.50;;;;;11.28;53.09;102241.44;2451942;27;45247;-88
2022/03/28 03:18:38;;;;;;;;;41.75;32.00;;;;;11.27;53.01;102230.03;2440717;28;46181;-85
2022/03/28 03:19:48;;;;;;;;;42.75;34.00;;;;;11.24;53.07;102235.31;2440911;28;45180;-86
2022/03/28 03:20:59;;;;;;;;;47.50;36.25;;;;;11.25;53.14;102235.31;2440701;28;45405;-86
2022/03/28 03:22:10;;;;;;;;;46.75;35.50;;;;;11.23;53.26;102230.97;2440092;28;45382;-86
2022/03/28 03:23:20;;;;;;;;;44.25;34.25;;;;;11.22;53.26;102232.72;2446402;28;45424;-86
2022/03/28 03:24:31;;;;;;;;;46.50;33.75;;;;;11.19;53.13;102221.34;2441864;27;45200;-87
2022/03/28 03:25:42;;;;;;;;;49.50;37.75;;;;;11.20;52.88;102231.88;2440164;28;47153;-87
2022/03/28 03:26:52;;;;;;;;;49.25;35.00;;;;;11.18;53.65;102227.50;2440438;28;45248;-88
2022/03/28 03:28:03;;;;;;;;;49.25;35.00;;;;;11.18;53.54;102225.75;2448611;28;47036;-87
2022/03/28 03:29:13;;;;;;;;;49.00;37.00;;;;;11.16;53.52;102227.50;2445290;28;45338;-87
2022/03/28 03:30:24;;;;;;;;;48.50;36.00;;;;;11.15;53.72;102231.03;2445160;28;47875;-87
2022/03/28 03:31:34;;;;;;;;;44.50;35.25;;;;;11.12;54.01;102221.41;2447095;28;45318;-88
2022/03/28 03:32:45;;;;;;;;;46.25;35.75;;;;;11.13;53.80;102222.28;2447685;28;46245;-87
2022/03/28 03:33:55;;;;;;;;;35.00;31.25;;;;;11.12;53.67;102228.44;2450592;27;44793;-87
2022/03/28 03:35:07;;;;;;;;;53.75;39.75;;;;;11.09;53.65;102223.19;2450339;27;45368;-87
2022/03/28 03:36:17;;;;;;;;;42.00;34.25;;;;;11.12;53.51;102226.69;2444572;27;45157;-87
2022/03/28 03:37:28;;;;;;;;;48.50;36.25;;;;;11.11;54.03;102224.09;2443464;28;46097;-85
2022/03/28 03:38:38;;;;;;;;;49.00;37.25;;;;;11.07;53.96;102220.59;2451813;28;45493;-85
2022/03/28 03:39:49;;;;;;;;;49.50;38.00;;;;;11.09;54.12;102225.84;2445242;27;46441;-85
2022/03/28 03:40:59;;;;;;;;;46.75;37.25;;;;;11.05;54.30;102221.50;2448854;27;44775;-85
2022/03/28 03:42:11;;;;;;;;;47.00;37.25;;;;;11.04;53.95;102223.25;2441565;28;47162;-86
2022/03/28 03:43:22;;;;;;;;;42.25;34.75;;;;;11.06;54.17;102225.88;2441909;28;45219;-85
2022/03/28 03:44:32;;;;;;;;;52.50;39.00;;;;;11.06;54.23;102228.53;2447539;28;47478;-85
2022/03/28 03:45:42;;;;;;;;;50.50;38.25;;;;;11.05;54.35;102225.00;2451158;28;44623;-85
2022/03/28 03:46:53;;;;;;;;;45.25;37.75;;;;;11.04;54.36;102228.50;2460966;27;47984;-86
2022/03/28 03:48:04;;;;;;;;;46.25;37.00;;;;;11.01;54.30;102228.56;2444520;27;45454;-84
2022/03/28 03:49:17;;;;;;;;;43.50;34.25;;;;;11.02;54.36;102231.19;2442209;28;46302;-87
2022/03/28 03:50:27;;;;;;;;;48.25;36.50;;;;;11.00;54.45;102221.56;2443309;28;45409;-86
2022/03/28 03:51:38;;;;;;;;;42.00;35.00;;;;;10.99;54.09;102220.69;2442249;28;46141;-83
2022/03/28 03:52:50;;;;;;;;;51.75;35.75;;;;;10.99;54.18;102223.31;2442196;28;45303;-84
2022/03/28 03:54:00;;;;;;;;;46.75;37.25;;;;;10.96;54.39;102223.38;2442145;28;46310;-84
2022/03/28 03:55:11;;;;;;;;;48.75;37.50;;;;;10.96;54.15;102220.72;2442341;28;45320;-84
2022/03/28 03:56:21;;;;;;;;;47.50;37.00;;;;;10.95;54.78;102218.09;2442580;28;45988;-84
2022/03/28 03:57:31;;;;;;;;;51.25;38.00;;;;;10.94;54.55;102216.38;2442308;28;45262;-84
2022/03/28 03:58:42;;;;;;;;;51.00;37.75;;;;;10.94;54.96;102222.47;2442068;28;46431;-84
2022/03/28 03:59:53;;;;;;;;;45.75;36.75;;;;;10.91;54.85;102219.91;2450277;28;45231;-83
2022/03/28 04:01:04;;;;;;;;;47.25;38.50;;;;;10.93;55.02;102219.88;2445236;28;45978;-82
2022/03/28 04:02:14;;;;;;;;;50.25;38.50;;;;;10.93;55.11;102225.13;2452094;27;44639;-81
2022/03/28 04:03:24;;;;;;;;;47.00;37.00;;;;;10.89;55.06;102219.06;2446632;27;45674;-81
2022/03/28 04:04:35;;;;;;;;;53.50;41.00;;;;;10.90;55.13;102221.66;2448839;27;45281;-81
2022/03/28 04:05:45;;;;;;;;;52.25;39.00;;;;;10.86;54.84;102219.97;2450504;27;45285;-81
2022/03/28 04:06:55;;;;;;;;;46.50;37.75;;;;;10.87;54.79;102224.31;2444890;28;45315;-81
2022/03/28 04:08:06;;;;;;;;;52.00;39.00;;;;;10.86;54.97;102213.81;2450163;28;45393;-81
2022/03/28 04:09:16;;;;;;;;;49.75;39.00;;;;;10.85;55.18;102228.72;2447175;27;45155;-81
2022/03/28 04:10:27;;;;;;;;;50.25;39.25;;;;;10.84;54.82;102221.69;2446138;28;45357;-81
2022/03/28 04:11:37;;;;;;;;;45.50;36.00;;;;;10.82;55.04;102222.59;2442335;28;45239;-83
2022/03/28 04:12:48;;;;;;;;;45.75;37.50;;;;;10.82;55.54;102217.34;2441533;28;48161;-82
2022/03/28 04:13:58;;;;;;;;;51.50;38.00;;;;;10.80;55.51;102220.88;2448119;28;45355;-82
2022/03/28 04:15:10;;;;;;;;;41.25;33.75;;;;;10.82;55.39;102222.59;2442220;28;45368;-83
2022/03/28 04:16:21;;;;;;;;;46.75;37.50;;;;;10.79;55.41;102221.75;2444174;27;44773;-84
2022/03/28 04:17:39;;;;;;;;;50.50;39.00;;;;;10.78;55.67;102213.88;2441947;28;45245;-84
2022/03/28 04:18:50;;;;;;;;;47.00;39.00;;;;;10.77;55.58;102220.91;2442351;28;45239;-84
2022/03/28 04:20:00;;;;;;;;;42.50;35.75;;;;;10.76;55.82;102221.81;2442874;28;45582;-84
2022/03/28 04:21:10;;;;;;;;;47.00;36.00;;;;;10.77;55.74;102220.03;2447786;27;45211;-85
2022/03/28 04:22:21;;;;;;;;;44.75;38.75;;;;;10.76;55.92;102221.81;2442726;28;45371;-84
2022/03/28 04:23:31;;;;;;;;;46.25;35.50;;;;;10.74;56.25;102220.94;2442128;28;45274;-84
2022/03/28 04:24:42;;;;;;;;;51.75;39.75;;;;;10.75;55.91;102227.94;2443249;28;46523;-84
2022/03/28 04:25:53;;;;;;;;;48.75;38.00;;;;;10.76;56.23;102227.06;2451862;27;45284;-84
2022/03/28 04:27:03;;;;;;;;;52.75;40.00;;;;;10.72;55.96;102222.69;2443154;27;46392;-83
2022/03/28 04:28:14;;;;;;;;;48.25;39.00;;;;;10.70;56.08;102229.75;2442032;28;44620;-83
2022/03/28 04:29:24;;;;;;;;;48.75;39.00;;;;;10.72;55.96;102233.22;2441073;28;46877;-84
2022/03/28 04:30:35;;;;;;;;;52.50;40.00;;;;;10.72;55.91;102225.34;2434420;28;45244;-83
2022/03/28 04:31:46;;;;;;;;;47.50;38.00;;;;;10.71;55.87;102231.50;2441078;28;46431;-84
2022/03/28 04:32:56;;;;;;;;;47.50;37.75;;;;;10.67;56.03;102225.38;2449595;28;44767;-85
2022/03/28 04:34:07;;;;;;;;;48.00;35.50;;;;;10.70;56.15;102237.63;2446394;27;45444;-85
2022/03/28 04:35:19;;;;;;;;;51.75;38.50;;;;;10.66;56.09;102231.53;2443464;28;45136;-86
2022/03/28 04:36:29;;;;;;;;;51.75;40.00;;;;;10.68;56.30;102231.50;2451662;27;46331;-85
2022/03/28 04:37:41;;;;;;;;;51.50;37.25;;;;;10.65;56.34;102231.53;2451664;27;45314;-85
2022/03/28 04:38:52;;;;;;;;;47.00;37.50;;;;;10.64;55.90;102224.56;2451608;27;46546;-86
2022/03/28 04:40:05;;;;;;;;;46.75;36.75;;;;;10.63;56.36;102223.69;2450921;28;45241;-85
2022/03/28 04:41:16;;;;;;;;;48.00;37.50;;;;;10.61;56.28;102222.81;2451263;28;45357;-85
2022/03/28 04:42:26;;;;;;;;;48.50;39.50;;;;;10.64;56.22;102232.44;2444984;27;45483;-84
2022/03/28 04:43:36;;;;;;;;;46.75;39.25;;;;;10.61;56.21;102222.81;2441770;28;45346;-85
2022/03/28 04:44:47;;;;;;;;;50.50;40.00;;;;;10.62;56.37;102226.31;2445293;28;45357;-84
2022/03/28 04:45:57;;;;;;;;;49.25;38.00;;;;;10.60;56.16;102223.69;2451175;27;46447;-84
2022/03/28 04:47:08;;;;;;;;;49.00;36.75;;;;;10.61;55.98;102229.84;2449751;28;44764;-84
2022/03/28 04:48:18;;;;;;;;;51.50;39.75;;;;;10.60;56.73;102225.44;2450668;28;45419;-83
2022/03/28 04:49:28;;;;;;;;;48.50;38.25;;;;;10.57;56.59;102219.34;2451633;27;45346;-83
2022/03/28 04:50:39;;;;;;;;;49.50;38.00;;;;;10.56;56.67;102222.88;2451390;27;46285;-83
2022/03/28 04:51:49;;;;;;;;;52.75;40.50;;;;;10.56;56.52;102222.88;2450446;28;45308;-81
2022/03/28 04:53:00;;;;;;;;;53.50;40.75;;;;;10.53;56.75;102219.38;2442650;27;45331;-81
2022/03/28 04:54:10;;;;;;;;;48.25;36.75;;;;;10.52;56.54;102215.03;2441870;28;45157;-80
2022/03/28 04:55:21;;;;;;;;;49.75;37.25;;;;;10.54;56.87;102223.75;2441459;28;45465;-80
2022/03/28 04:56:34;;;;;;;;;45.75;38.50;;;;;10.51;56.67;102222.03;2444670;28;45870;-80
2022/03/28 04:57:44;;;;;;;;;49.75;39.25;;;;;10.50;57.06;102219.38;2451578;28;45375;-80
2022/03/28 04:58:55;;;;;;;;;51.75;39.00;;;;;10.51;56.96;102229.91;2441896;28;44629;-79
2022/03/28 05:00:07;;;;;;;;;47.25;38.25;;;;;10.49;57.02;102223.78;2447561;28;45454;-80
2022/03/28 05:01:18;;;;;;;;;50.75;39.00;;;;;10.47;56.87;102220.25;2451290;27;45255;-80
2022/03/28 05:02:28;;;;;;;;;47.00;37.00;;;;;10.46;56.77;102215.91;2445072;27;46467;-80
2022/03/28 05:03:38;;;;;;;;;48.50;37.75;;;;;10.48;57.03;102224.66;2441814;28;45211;-80
2022/03/28 05:04:49;;;;;;;;;48.75;36.00;;;;;10.45;57.02;102222.03;2441193;28;46473;-80
2022/03/28 05:05:59;;;;;;;;;50.75;40.00;;;;;10.48;57.05;102227.28;2441743;28;45221;-80
2022/03/28 05:07:10;;;;;;;;;52.25;39.25;;;;;10.47;57.11;102217.63;2441592;28;46303;-84
2022/03/28 05:08:20;;;;;;;;;50.25;39.75;;;;;10.43;57.28;102215.91;2445937;28;44795;-83
2022/03/28 05:09:31;;;;;;;;;46.75;37.00;;;;;10.45;57.54;102220.28;2449643;27;45453;-84
2022/03/28 05:10:41;;;;;;;;;45.75;36.50;;;;;10.44;57.52;102209.78;2442434;28;45429;-83
2022/03/28 05:11:51;;;;;;;;;46.75;36.50;;;;;10.43;57.34;102210.66;2441696;28;45307;-83
2022/03/28 05:13:02;;;;;;;;;49.75;38.50;;;;;10.43;57.58;102215.91;2443856;28;45223;-83
2022/03/28 05:14:13;;;;;;;;;57.50;41.75;;;;;10.41;57.31;102205.44;2445187;27;45264;-83
2022/03/28 05:15:23;;;;;;;;;47.00;38.75;;;;;10.41;57.41;102209.81;2441659;28;45251;-84
2022/03/28 05:16:33;;;;;;;;;51.50;39.25;;;;;10.41;57.49;102207.19;2456300;27;46400;-82
2022/03/28 05:17:44;;;;;;;;;51.00;38.00;;;;;10.43;57.81;102214.16;2443606;27;45282;-82
2022/03/28 05:18:54;;;;;;;;;50.50;38.75;;;;;10.39;57.43;102209.84;2441732;28;45314;-81
2022/03/28 05:20:05;;;;;;;;;47.00;37.50;;;;;10.39;57.46;102208.97;2448280;28;45334;-81
2022/03/28 05:21:16;;;;;;;;;46.25;37.25;;;;;10.41;57.40;102215.94;2449687;28;46516;-82
2022/03/28 05:22:27;;;;;;;;;49.50;38.25;;;;;10.39;57.62;102209.84;2450808;28;44790;-83